Time;durP1;ratioP1;P1;durP2;ratioP2;P2;SDS_P1;SDS_P2;PMS_P1;PMS_P2;Temp;Humidity;BMP_temperature;BMP_pressure;BME280_temperature;BME280_humidity;BME280_pressure;Samples;Min_cycle;Max_cycle;Signal;HPM_P1;HPM_P2
2023/06/06 00:02:16;;;;;;;8.88;5.15;;;12.00;99.90;;;;;;5012941;28;20243;-81
2023/06/06 00:04:45;;;;;;;8.90;5.25;;;12.80;99.90;;;;;;5002755;28;20049;-81
2023/06/06 00:07:12;;;;;;;8.40;5.00;;;12.00;99.90;;;;;;5012529;28;20042;-80
2023/06/06 00:09:38;;;;;;;7.20;5.15;;;13.80;99.90;;;;;;5005100;28;20104;-86
2023/06/06 00:12:04;;;;;;;7.95;5.43;;;12.00;99.90;;;;;;5005255;28;20078;-84
2023/06/06 00:14:31;;;;;;;9.40;5.22;;;12.00;99.90;;;;;;5011609;28;20062;-78
2023/06/06 00:16:58;;;;;;;8.07;5.03;;;12.00;99.90;;;;;;4993981;28;20100;-81
2023/06/06 00:19:24;;;;;;;6.80;4.72;;;12.00;99.90;;;;;;5012564;28;20077;-86
2023/06/06 00:21:50;;;;;;;8.80;5.10;;;12.50;99.90;;;;;;5011744;28;20509;-80
2023/06/06 00:24:17;;;;;;;6.35;4.97;;;11.90;99.90;;;;;;5012360;28;20095;-80
2023/06/06 00:26:43;;;;;;;8.13;5.32;;;11.90;99.90;;;;;;5011978;28;20038;-81
2023/06/06 00:29:09;;;;;;;8.48;4.80;;;11.90;99.90;;;;;;5003932;28;20493;-80
2023/06/06 00:31:34;;;;;;;8.63;5.32;;;11.90;99.90;;;;;;5009035;28;20038;-81
2023/06/06 00:34:00;;;;;;;8.90;5.10;;;13.70;99.90;;;;;;5012848;28;20042;-82
2023/06/06 00:36:26;;;;;;;8.65;5.25;;;12.10;99.90;;;;;;5011540;28;20445;-80
2023/06/06 00:38:51;;;;;;;7.88;4.82;;;12.70;99.90;;;;;;5011656;28;20445;-81
2023/06/06 00:41:17;;;;;;;11.38;5.30;;;11.80;99.90;;;;;;5012161;28;20030;-82
2023/06/06 00:43:44;;;;;;;8.07;5.05;;;11.80;99.90;;;;;;5011045;28;20076;-81
2023/06/06 00:46:10;;;;;;;10.15;5.68;;;11.80;99.90;;;;;;4994630;28;20035;-80
2023/06/06 00:48:36;;;;;;;8.18;5.20;;;11.70;99.90;;;;;;4999216;28;20405;-81
2023/06/06 00:51:09;;;;;;;7.20;5.65;;;11.60;99.90;;;;;;5007831;28;20425;-82
2023/06/06 00:53:36;;;;;;;9.45;5.13;;;11.90;99.90;;;;;;4993743;28;20520;-81
2023/06/06 00:56:02;;;;;;;7.07;5.10;;;12.30;99.90;;;;;;5011061;28;20041;-81
2023/06/06 00:58:30;;;;;;;6.32;4.95;;;11.70;99.90;;;;;;5011313;28;20550;-83
2023/06/06 01:00:56;;;;;;;6.85;4.78;;;13.40;99.90;;;;;;4993970;28;20204;-81
2023/06/06 01:03:24;;;;;;;6.40;5.03;;;13.40;99.90;;;;;;4992280;28;20099;-81
2023/06/06 01:05:53;;;;;;;5.88;4.50;;;11.70;99.90;;;;;;5011488;28;20038;-81
2023/06/06 01:08:20;;;;;;;9.45;5.82;;;11.60;99.90;;;;;;5012008;28;20113;-82
2023/06/06 01:10:46;;;;;;;10.30;5.40;;;11.70;99.90;;;;;;5010452;28;20049;-81
2023/06/06 01:13:33;;;;;;;7.78;5.18;;;11.70;99.90;;;;;;5012052;28;20041;-81
2023/06/06 01:16:05;;;;;;;9.57;5.00;;;11.70;99.90;;;;;;5008909;28;20185;-81
2023/06/06 01:18:31;;;;;;;7.40;4.80;;;12.70;99.90;;;;;;5014598;28;20085;-81
2023/06/06 01:21:01;;;;;;;9.57;5.18;;;12.80;99.90;;;;;;5004342;28;20073;-81
2023/06/06 01:23:30;;;;;;;5.40;4.43;;;11.60;99.90;;;;;;5000401;28;20045;-81
2023/06/06 01:25:56;;;;;;;8.57;5.40;;;12.10;99.90;;;;;;4993845;28;20807;-82
2023/06/06 01:28:23;;;;;;;8.93;5.55;;;11.60;99.90;;;;;;5011123;28;20042;-80
2023/06/06 01:30:49;;;;;;;7.18;4.68;;;11.60;99.90;;;;;;5010514;28;20398;-81
2023/06/06 01:33:30;;;;;;;8.32;5.22;;;13.10;99.90;;;;;;4993524;28;20042;-82
2023/06/06 01:36:30;;;;;;;6.05;4.90;;;11.50;99.90;;;;;;5010914;28;20030;-81
2023/06/06 01:39:03;;;;;;;8.73;4.88;;;11.50;99.90;;;;;;4963718;28;20137;-82
2023/06/06 01:41:30;;;;;;;12.23;5.63;;;11.50;99.90;;;;;;4985517;28;20042;-81
2023/06/06 01:43:57;;;;;;;7.60;5.03;;;11.50;99.90;;;;;;5010631;28;20044;-82
2023/06/06 01:46:25;;;;;;;7.50;5.32;;;11.40;99.90;;;;;;4992500;28;20042;-82
2023/06/06 01:48:52;;;;;;;12.85;6.18;;;11.40;99.90;;;;;;5010629;28;20045;-78
2023/06/06 01:51:18;;;;;;;11.43;5.45;;;13.50;99.90;;;;;;5010980;28;20061;-80
2023/06/06 01:53:44;;;;;;;12.05;6.07;;;9.60;99.90;;;;;;5009508;28;20578;-81
2023/06/06 01:56:13;;;;;;;8.13;5.30;;;11.40;99.90;;;;;;5010629;28;20677;-83
2023/06/06 01:58:40;;;;;;;9.57;5.88;;;13.60;99.90;;;;;;5009963;28;20042;-81
2023/06/06 02:01:06;;;;;;;9.27;5.70;;;11.30;99.90;;;;;;5010069;28;20042;-81
2023/06/06 02:03:32;;;;;;;8.65;5.85;;;11.20;99.90;;;;;;5010056;28;20405;-81
2023/06/06 02:05:58;;;;;;;9.27;5.30;;;12.90;99.90;;;;;;4992000;28;20652;-81
2023/06/06 02:08:23;;;;;;;7.03;5.13;;;12.10;99.90;;;;;;5010225;28;20037;-82
2023/06/06 02:10:50;;;;;;;9.52;5.45;;;11.30;99.90;;;;;;4992842;28;20037;-81
2023/06/06 02:13:16;;;;;;;6.35;5.10;;;13.20;99.90;;;;;;5009922;28;20099;-81
2023/06/06 02:15:41;;;;;;;10.35;5.47;;;13.10;99.90;;;;;;4991761;28;20433;-80
2023/06/06 02:18:07;;;;;;;7.78;5.00;;;11.70;99.90;;;;;;4976683;28;20045;-81
2023/06/06 02:20:33;;;;;;;11.45;5.90;;;11.20;99.90;;;;;;5008779;28;20437;-85
2023/06/06 02:22:58;;;;;;;10.02;5.57;;;11.20;99.90;;;;;;4991621;28;20390;-82
2023/06/06 02:25:24;;;;;;;8.25;5.40;;;11.20;99.90;;;;;;4991914;28;20042;-81
2023/06/06 02:27:51;;;;;;;10.07;5.40;;;11.20;99.90;;;;;;4991764;28;20504;-83
2023/06/06 02:30:17;;;;;;;10.07;5.70;;;11.20;99.90;;;;;;5009902;28;20030;-81
2023/06/06 02:32:43;;;;;;;11.32;5.53;;;11.20;99.90;;;;;;5009462;28;20038;-82
2023/06/06 02:35:08;;;;;;;9.55;5.75;;;11.10;99.90;;;;;;4991633;28;20037;-82
2023/06/06 02:37:34;;;;;;;6.68;5.05;;;11.80;99.90;;;;;;5010190;28;20139;-81
2023/06/06 02:40:08;;;;;;;11.25;5.45;;;13.00;99.90;;;;;;5002439;28;20043;-80
2023/06/06 02:42:36;;;;;;;9.60;5.55;;;13.10;99.90;;;;;;4984552;28;20037;-81
2023/06/06 02:45:02;;;;;;;9.35;5.45;;;11.10;99.90;;;;;;5009556;28;20139;-82
2023/06/06 02:47:27;;;;;;;8.25;5.00;;;11.10;99.90;;;;;;5009706;28;20073;-81
2023/06/06 02:49:53;;;;;;;10.23;5.63;;;11.10;99.90;;;;;;5008753;28;20111;-80
2023/06/06 02:52:20;;;;;;;9.23;5.50;;;11.10;99.90;;;;;;5010441;28;20482;-81
2023/06/06 02:54:46;;;;;;;9.15;5.53;;;12.60;99.90;;;;;;5008874;28;20050;-81
2023/06/06 02:57:11;;;;;;;9.30;5.30;;;12.60;99.90;;;;;;5008903;28;20100;-81
2023/06/06 02:59:37;;;;;;;6.72;5.07;;;11.10;99.90;;;;;;5009022;28;20044;-81
2023/06/06 03:02:03;;;;;;;7.18;5.30;;;11.40;99.90;;;;;;5009539;28;20041;-80
2023/06/06 03:04:29;;;;;;;14.18;5.13;;;11.10;99.90;;;;;;5008785;28;20068;-82
2023/06/06 03:06:55;;;;;;;7.05;5.22;;;10.90;99.90;;;;;;5009822;28;20450;-80
2023/06/06 03:09:22;;;;;;;13.70;5.47;;;13.30;99.90;;;;;;5012596;28;20117;-80
2023/06/06 03:11:47;;;;;;;6.47;5.05;;;13.30;99.90;;;;;;5020229;28;20092;-82
2023/06/06 03:14:14;;;;;;;9.38;5.40;;;12.40;99.90;;;;;;5016379;28;20053;-81
2023/06/06 03:16:41;;;;;;;10.25;5.20;;;11.80;99.90;;;;;;5009384;28;20108;-81
2023/06/06 03:19:07;;;;;;;10.80;5.50;;;12.90;99.90;;;;;;4991754;28;20489;-82
2023/06/06 03:21:38;;;;;;;7.18;4.45;;;13.10;99.90;;;;;;5009215;28;20052;-81
2023/06/06 03:24:04;;;;;;;13.98;5.43;;;11.00;99.90;;;;;;5008524;28;20519;-82
2023/06/06 03:26:31;;;;;;;5.03;4.50;;;11.00;99.90;;;;;;5009072;28;20057;-82
2023/06/06 03:28:57;;;;;;;9.63;5.15;;;10.90;99.90;;;;;;5009528;28;20105;-81
2023/06/06 03:31:23;;;;;;;11.13;5.72;;;11.00;99.90;;;;;;4991328;28;20125;-80
2023/06/06 03:33:52;;;;;;;9.13;4.90;;;11.00;99.90;;;;;;5010207;28;20486;-79
2023/06/06 03:36:19;;;;;;;10.45;5.22;;;11.00;99.90;;;;;;5013434;28;20121;-83
2023/06/06 03:38:45;;;;;;;11.82;5.35;;;13.00;99.90;;;;;;5012433;28;20521;-81
2023/06/06 03:41:10;;;;;;;12.65;5.65;;;11.00;99.90;;;;;;5012919;28;20038;-79
2023/06/06 03:43:37;;;;;;;8.98;5.45;;;13.10;99.90;;;;;;5012635;28;20041;-86
2023/06/06 03:46:03;;;;;;;8.98;4.68;;;11.00;99.90;;;;;;5012404;28;20046;-81
2023/06/06 03:48:29;;;;;;;8.80;4.90;;;11.10;99.90;;;;;;5012776;28;20137;-80
2023/06/06 03:50:55;;;;;;;12.50;5.20;;;11.00;99.90;;;;;;5012540;28;20037;-80
2023/06/06 03:53:21;;;;;;;8.75;5.07;;;12.10;99.90;;;;;;4994560;28;20050;-80
2023/06/06 03:55:46;;;;;;;7.45;5.13;;;13.20;99.90;;;;;;5012665;28;20481;-80
2023/06/06 03:58:16;;;;;;;9.45;5.32;;;9.30;99.90;;;;;;5013171;28;20045;-82
2023/06/06 04:00:43;;;;;;;9.25;5.57;;;11.00;99.90;;;;;;4994098;28;20050;-80
2023/06/06 04:03:09;;;;;;;15.70;6.57;;;12.70;99.90;;;;;;5012972;28;20072;-81
2023/06/06 04:05:35;;;;;;;8.85;5.30;;;10.90;99.90;;;;;;5011299;28;20034;-80
2023/06/06 04:08:01;;;;;;;9.00;5.75;;;11.10;99.90;;;;;;5013144;28;20034;-82
2023/06/06 04:10:26;;;;;;;12.30;5.85;;;11.60;99.90;;;;;;5012399;28;20413;-81
2023/06/06 04:12:52;;;;;;;9.50;4.82;;;11.10;99.90;;;;;;5011867;28;20038;-81
2023/06/06 04:15:18;;;;;;;14.23;6.63;;;11.10;99.90;;;;;;5011939;28;20107;-82
2023/06/06 04:17:44;;;;;;;9.77;5.65;;;11.10;99.90;;;;;;5011887;28;20481;-81
2023/06/06 04:20:11;;;;;;;6.88;4.85;;;11.10;99.90;;;;;;5011918;28;20565;-81
2023/06/06 04:22:37;;;;;;;9.07;5.25;;;11.10;99.90;;;;;;5010559;28;20055;-82
2023/06/06 04:25:02;;;;;;;6.07;5.18;;;12.60;99.90;;;;;;5000236;28;20584;-81
2023/06/06 04:27:30;;;;;;;6.28;5.05;;;11.20;99.90;;;;;;5011436;28;20077;-81
2023/06/06 04:29:57;;;;;;;8.75;4.93;;;11.20;99.90;;;;;;4995475;28;20048;-81
2023/06/06 04:32:33;;;;;;;12.63;6.22;;;11.20;99.90;;;;;;4997059;28;20042;-79
2023/06/06 04:35:00;;;;;;;9.55;5.13;;;11.20;99.90;;;;;;5014031;28;20049;-87
2023/06/06 04:37:27;;;;;;;8.55;4.80;;;11.20;99.90;;;;;;4996903;28;20608;-81
2023/06/06 04:39:53;;;;;;;11.45;5.88;;;13.10;99.90;;;;;;5015359;28;20112;-80
2023/06/06 04:42:20;;;;;;;9.73;5.15;;;13.20;99.90;;;;;;5014390;28;20081;-81
2023/06/06 04:44:46;;;;;;;10.90;5.18;;;12.60;99.90;;;;;;5014347;28;20516;-81
2023/06/06 04:47:15;;;;;;;10.23;5.13;;;11.30;99.90;;;;;;5014195;28;20050;-82
2023/06/06 04:49:46;;;;;;;12.77;5.22;;;12.40;99.90;;;;;;4997466;28;20049;-81
2023/06/06 04:52:14;;;;;;;9.98;5.50;;;11.30;99.90;;;;;;5012479;28;20057;-81
2023/06/06 04:54:41;;;;;;;9.77;5.10;;;11.50;99.90;;;;;;5016259;28;20025;-81
2023/06/06 04:57:15;;;;;;;17.30;11.93;;;12.00;99.90;;;;;;5034691;28;20042;-80
2023/06/06 04:59:51;;;;;;;14.80;6.28;;;12.40;99.90;;;;;;4980589;28;20535;-81
2023/06/06 05:02:28;;;;;;;14.70;6.00;;;11.40;99.90;;;;;;5007285;28;20025;-80
2023/06/06 05:05:11;;;;;;;8.30;4.75;;;11.40;99.90;;;;;;5024962;28;20069;-80
2023/06/06 05:07:37;;;;;;;10.32;5.00;;;11.40;99.90;;;;;;5001009;23;20069;-82
2023/06/06 05:10:03;;;;;;;14.13;5.40;;;11.50;99.90;;;;;;4977827;28;20042;-82
2023/06/06 05:12:28;;;;;;;12.82;5.30;;;11.50;99.90;;;;;;4994905;28;20090;-81
2023/06/06 05:14:54;;;;;;;8.63;4.80;;;11.60;99.90;;;;;;4994247;28;20049;-81
2023/06/06 05:17:23;;;;;;;11.50;5.68;;;11.50;99.90;;;;;;5012508;28;20500;-80
2023/06/06 05:19:51;;;;;;;12.35;5.50;;;12.70;99.90;;;;;;5015332;28;20042;-86
2023/06/06 05:22:16;;;;;;;13.23;5.53;;;11.60;99.90;;;;;;5017973;28;20053;-79
2023/06/06 05:24:43;;;;;;;12.00;5.63;;;12.70;99.90;;;;;;5012264;28;20045;-79
2023/06/06 05:27:09;;;;;;;15.25;5.90;;;11.70;99.90;;;;;;5012179;28;20335;-81
2023/06/06 05:29:36;;;;;;;11.10;5.40;;;12.00;99.90;;;;;;5013170;28;20568;-81
2023/06/06 05:32:02;;;;;;;16.35;6.70;;;13.00;99.90;;;;;;5011439;28;20084;-80
2023/06/06 05:34:27;;;;;;;12.43;5.68;;;11.70;99.90;;;;;;4994126;28;20057;-81
2023/06/06 05:36:53;;;;;;;16.55;6.57;;;11.80;99.90;;;;;;5009665;28;20041;-82
2023/06/06 05:39:19;;;;;;;18.33;6.00;;;11.80;99.90;;;;;;5012225;28;20045;-81
2023/06/06 05:41:47;;;;;;;15.55;6.80;;;11.80;99.90;;;;;;5002634;28;20493;-84
2023/06/06 05:44:12;;;;;;;9.85;5.95;;;11.90;99.90;;;;;;5011248;28;20081;-81
2023/06/06 05:46:38;;;;;;;14.02;5.90;;;11.90;99.90;;;;;;5009853;28;20042;-81
2023/06/06 05:49:04;;;;;;;15.27;5.55;;;11.90;99.90;;;;;;5010249;28;20038;-84
2023/06/06 05:51:30;;;;;;;17.75;6.93;;;12.40;99.90;;;;;;5009909;28;20037;-81
2023/06/06 05:53:56;;;;;;;13.10;6.00;;;12.40;99.90;;;;;;5009901;28;20100;-81
2023/06/06 05:56:21;;;;;;;12.27;6.38;;;12.00;99.90;;;;;;5010489;28;20478;-83
2023/06/06 05:58:49;;;;;;;17.60;6.28;;;12.10;99.90;;;;;;5009934;28;20078;-84
2023/06/06 06:01:15;;;;;;;12.50;5.75;;;12.10;99.90;;;;;;4992917;28;20552;-82
2023/06/06 06:03:42;;;;;;;13.65;5.72;;;13.70;99.90;;;;;;5009668;28;20057;-82
2023/06/06 06:06:08;;;;;;;12.77;5.95;;;12.20;99.90;;;;;;4992230;28;20580;-80
2023/06/06 06:08:34;;;;;;;11.38;6.30;;;12.30;99.90;;;;;;4975913;28;20092;-82
2023/06/06 06:11:01;;;;;;;11.07;5.70;;;12.50;99.90;;;;;;4993015;28;20065;-82
2023/06/06 06:13:27;;;;;;;13.55;5.88;;;14.30;99.90;;;;;;4993053;28;20104;-82
2023/06/06 06:15:52;;;;;;;13.38;6.35;;;13.80;99.90;;;;;;5005584;28;20526;-82
2023/06/06 06:18:18;;;;;;;13.40;7.95;;;12.70;99.90;;;;;;5006498;28;20133;-84
2023/06/06 06:20:45;;;;;;;13.10;6.13;;;12.50;99.90;;;;;;4991529;28;20100;-83
2023/06/06 06:23:10;;;;;;;14.32;5.57;;;14.60;99.90;;;;;;5003477;28;20046;-82
2023/06/06 06:25:36;;;;;;;8.65;4.82;;;12.50;99.90;;;;;;4999304;28;20042;-82
2023/06/06 06:28:02;;;;;;;13.18;5.30;;;13.10;99.90;;;;;;4991403;28;20539;-80
2023/06/06 06:30:28;;;;;;;11.88;4.15;;;12.50;99.90;;;;;;5001468;28;20035;-80
2023/06/06 06:32:53;;;;;;;9.95;4.65;;;12.50;99.90;;;;;;5009216;28;20121;-78
2023/06/06 06:35:19;;;;;;;11.35;4.47;;;12.50;99.90;;;;;;5009081;28;20049;-79
2023/06/06 06:37:45;;;;;;;11.93;3.80;;;13.90;99.90;;;;;;5009664;28;20136;-79
2023/06/06 06:40:11;;;;;;;9.77;4.35;;;12.40;99.90;;;;;;5002941;28;20080;-77
2023/06/06 06:42:41;;;;;;;9.63;4.72;;;12.70;99.90;;;;;;4993846;28;20141;-77
2023/06/06 06:45:09;;;;;;;6.22;3.70;;;12.70;99.90;;;;;;5008320;28;20050;-81
2023/06/06 06:47:36;;;;;;;8.52;4.13;;;12.80;99.90;;;;;;4990500;28;20084;-77
2023/06/06 06:50:02;;;;;;;8.43;3.50;;;14.10;99.90;;;;;;4992651;28;20370;-78
2023/06/06 06:52:28;;;;;;;8.55;4.05;;;12.90;99.90;;;;;;5020374;28;20076;-78
2023/06/06 06:54:57;;;;;;;8.88;4.43;;;12.90;99.90;;;;;;4996439;28;20045;-80
2023/06/06 06:57:26;;;;;;;10.95;4.07;;;12.90;99.90;;;;;;5007789;28;20050;-82
2023/06/06 06:59:58;;;;;;;10.23;3.22;;;13.00;99.90;;;;;;5006891;28;20581;-80
2023/06/06 07:02:26;;;;;;;7.90;3.28;;;12.90;99.90;;;;;;5006198;28;20042;-80
2023/06/06 07:04:59;;;;;;;7.63;3.28;;;13.00;99.90;;;;;;5007020;28;20056;-79
2023/06/06 07:07:25;;;;;;;11.90;4.47;;;13.00;99.90;;;;;;5005480;28;20501;-80
2023/06/06 07:09:52;;;;;;;6.38;3.17;;;13.30;99.90;;;;;;4985068;28;20103;-78
2023/06/06 07:12:19;;;;;;;8.50;3.60;;;13.10;99.90;;;;;;5009082;28;20049;-79
2023/06/06 07:14:45;;;;;;;7.47;3.53;;;13.20;99.90;;;;;;5008634;28;20426;-78
2023/06/06 07:17:11;;;;;;;9.10;3.30;;;15.10;99.90;;;;;;4991078;28;20080;-80
2023/06/06 07:19:37;;;;;;;9.82;3.80;;;14.60;99.90;;;;;;4991276;28;20061;-80
2023/06/06 07:22:06;;;;;;;9.07;3.28;;;13.30;99.90;;;;;;5008572;28;20033;-80
2023/06/06 07:24:32;;;;;;;7.68;3.22;;;13.30;99.90;;;;;;5007216;28;20410;-80
2023/06/06 07:26:59;;;;;;;9.98;3.80;;;13.30;99.90;;;;;;5009161;28;20037;-81
2023/06/06 07:29:26;;;;;;;6.72;3.10;;;13.40;99.90;;;;;;5008510;28;20061;-80
2023/06/06 07:31:53;;;;;;;6.88;3.83;;;13.40;99.90;;;;;;4991224;28;20049;-80
2023/06/06 07:34:19;;;;;;;6.13;3.67;;;13.50;99.90;;;;;;5009475;28;20084;-80
2023/06/06 07:36:44;;;;;;;6.93;3.65;;;13.50;99.90;;;;;;4990586;28;20046;-80
2023/06/06 07:39:10;;;;;;;5.35;3.15;;;13.50;99.90;;;;;;5009101;28;20069;-80
2023/06/06 07:41:38;;;;;;;8.50;3.78;;;13.60;99.90;;;;;;5008615;28;20037;-81
2023/06/06 07:44:04;;;;;;;8.70;3.47;;;13.90;99.90;;;;;;4990571;28;20057;-81
2023/06/06 07:46:29;;;;;;;11.60;3.92;;;13.60;99.90;;;;;;5008590;28;20490;-81
2023/06/06 07:48:55;;;;;;;13.68;3.72;;;15.30;99.90;;;;;;5008651;28;20093;-81
2023/06/06 07:51:21;;;;;;;6.55;3.33;;;13.70;99.90;;;;;;4990842;28;20050;-80
2023/06/06 07:53:46;;;;;;;10.80;4.13;;;13.70;99.90;;;;;;4990842;28;20061;-81
2023/06/06 07:56:16;;;;;;;6.28;3.22;;;13.80;99.90;;;;;;4991530;28;20069;-81
2023/06/06 07:58:53;;;;;;;9.70;3.53;;;14.10;99.90;;;;;;5007672;28;20489;-81
2023/06/06 08:01:23;;;;;;;10.73;3.95;;;14.10;99.90;;;;;;5009255;28;20421;-81
2023/06/06 08:03:54;;;;;;;7.28;3.85;;;13.80;99.90;;;;;;4990381;28;20411;-81
2023/06/06 08:06:27;;;;;;;11.45;3.40;;;13.90;99.90;;;;;;5008222;28;20081;-80
2023/06/06 08:08:54;;;;;;;9.93;4.43;;;15.00;99.90;;;;;;5008927;28;20057;-81
2023/06/06 08:11:20;;;;;;;7.65;3.88;;;14.20;99.90;;;;;;5008520;28;20580;-81
2023/06/06 08:13:46;;;;;;;9.70;4.40;;;14.10;99.90;;;;;;4990185;28;20128;-81
2023/06/06 08:16:11;;;;;;;8.23;4.95;;;14.10;99.90;;;;;;4991480;28;20056;-81
2023/06/06 08:18:40;;;;;;;10.55;3.88;;;14.20;99.90;;;;;;5007395;28;20064;-81
2023/06/06 08:21:06;;;;;;;9.48;4.55;;;14.20;99.90;;;;;;4994679;28;20034;-80
2023/06/06 08:23:33;;;;;;;4.70;3.70;;;14.20;99.90;;;;;;5011900;28;20107;-81
2023/06/06 08:25:59;;;;;;;8.23;4.10;;;14.30;99.90;;;;;;5011691;28;20476;-81
2023/06/06 08:28:26;;;;;;;8.73;4.93;;;14.30;99.90;;;;;;4994683;28;20140;-81
2023/06/06 08:30:52;;;;;;;9.15;4.70;;;14.30;99.90;;;;;;4994407;28;20151;-80
2023/06/06 08:33:19;;;;;;;9.70;4.45;;;14.40;99.90;;;;;;4994036;28;20045;-81
2023/06/06 08:35:45;;;;;;;9.77;5.00;;;15.10;99.90;;;;;;5012457;28;20122;-81
2023/06/06 08:38:11;;;;;;;10.55;4.82;;;15.20;99.90;;;;;;5015008;28;20080;-81
2023/06/06 08:40:38;;;;;;;9.38;4.40;;;14.50;99.90;;;;;;5021485;28;20042;-81
2023/06/06 08:43:05;;;;;;;10.18;4.55;;;14.60;99.90;;;;;;5019234;28;20042;-81
2023/06/06 08:45:32;;;;;;;11.52;4.60;;;14.60;99.90;;;;;;5011875;28;20049;-80
2023/06/06 08:47:58;;;;;;;9.18;4.43;;;14.60;99.90;;;;;;5010985;28;20513;-81
2023/06/06 08:50:26;;;;;;;8.38;4.25;;;14.70;99.90;;;;;;5011691;28;20081;-81
2023/06/06 08:52:52;;;;;;;8.32;4.55;;;15.50;99.90;;;;;;5011927;28;20050;-81
2023/06/06 08:55:19;;;;;;;10.52;4.65;;;15.30;99.90;;;;;;5010944;28;20034;-81
2023/06/06 08:57:47;;;;;;;8.95;5.10;;;14.80;99.90;;;;;;5011455;28;20495;-81
2023/06/06 09:00:21;;;;;;;10.38;5.13;;;14.80;99.90;;;;;;5011793;28;20049;-81
2023/06/06 09:02:52;;;;;;;12.18;5.15;;;14.90;99.90;;;;;;5010808;28;20112;-81
2023/06/06 09:05:20;;;;;;;6.75;5.07;;;15.00;99.90;;;;;;5011815;28;20067;-81
2023/06/06 09:07:49;;;;;;;8.57;4.82;;;16.30;99.90;;;;;;5002632;28;20130;-81
2023/06/06 09:10:15;;;;;;;6.43;4.40;;;15.00;99.90;;;;;;4981858;28;20176;-81
2023/06/06 09:12:43;;;;;;;9.82;4.40;;;16.10;99.90;;;;;;4991466;28;20462;-81
2023/06/06 09:15:10;;;;;;;7.75;4.53;;;15.10;99.90;;;;;;4983175;28;20520;-81
2023/06/06 09:17:36;;;;;;;12.40;4.72;;;15.10;99.90;;;;;;4991515;28;20045;-81
2023/06/06 09:20:13;;;;;;;9.63;4.85;;;15.10;99.90;;;;;;4974502;28;20046;-81
2023/06/06 09:22:40;;;;;;;9.65;4.78;;;15.20;99.90;;;;;;4991113;28;20058;-81
2023/06/06 09:25:19;;;;;;;10.18;4.50;;;15.90;99.90;;;;;;4974131;28;20096;-81
2023/06/06 09:27:46;;;;;;;10.20;4.18;;;15.30;99.90;;;;;;4999862;28;20046;-82
2023/06/06 09:30:26;;;;;;;10.05;4.40;;;15.60;99.90;;;;;;4999052;28;20073;-81
2023/06/06 09:33:00;;;;;;;9.82;4.28;;;15.40;99.90;;;;;;4999625;28;20054;-81
2023/06/06 09:35:32;;;;;;;7.35;4.03;;;15.40;99.90;;;;;;5002717;28;20046;-81
2023/06/06 09:38:07;;;;;;;11.35;5.05;;;15.50;99.90;;;;;;5000783;28;20389;-80
2023/06/06 09:40:43;;;;;;;7.70;4.50;;;16.90;99.90;;;;;;4997201;28;20057;-81
2023/06/06 09:43:10;;;;;;;14.38;5.50;;;15.60;99.90;;;;;;4998935;28;20081;-81
2023/06/06 09:45:58;;;;;;;12.95;5.45;;;15.60;99.90;;;;;;4999135;28;20055;-80
2023/06/06 09:48:29;;;;;;;7.63;4.63;;;16.10;99.90;;;;;;4989780;28;20042;-81
2023/06/06 09:50:55;;;;;;;6.75;4.38;;;17.10;99.90;;;;;;4959688;28;20402;-81
2023/06/06 09:53:30;;;;;;;12.40;5.45;;;15.70;99.90;;;;;;4991946;28;20050;-80
2023/06/06 09:56:02;;;;;;;9.15;5.10;;;15.80;99.90;;;;;;4974294;28;20046;-81
2023/06/06 09:58:31;;;;;;;10.38;5.07;;;15.80;99.90;;;;;;4990812;28;20046;-81
2023/06/06 10:00:58;;;;;;;7.78;4.35;;;16.40;99.90;;;;;;4974615;28;20038;-81
2023/06/06 10:03:24;;;;;;;8.95;5.18;;;15.90;99.90;;;;;;4976013;28;20057;-82
2023/06/06 10:05:51;;;;;;;10.27;4.78;;;16.00;99.90;;;;;;4996577;28;20041;-82
2023/06/06 10:08:19;;;;;;;8.48;4.57;;;16.00;99.90;;;;;;5012771;28;20492;-82
2023/06/06 10:10:48;;;;;;;10.10;4.90;;;16.10;99.90;;;;;;5010873;28;20038;-82
2023/06/06 10:13:18;;;;;;;7.80;4.95;;;16.10;99.90;;;;;;5011134;28;20045;-82
2023/06/06 10:15:44;;;;;;;9.23;5.00;;;17.00;99.90;;;;;;5012227;28;20074;-82
2023/06/06 10:18:10;;;;;;;8.48;4.47;;;15.50;99.90;;;;;;5012865;28;20077;-82
2023/06/06 10:20:36;;;;;;;6.85;4.38;;;16.20;99.90;;;;;;5012569;28;20151;-82
2023/06/06 10:23:03;;;;;;;9.63;5.03;;;16.30;99.90;;;;;;4996028;28;20042;-81
2023/06/06 10:25:29;;;;;;;12.65;7.93;;;16.40;99.90;;;;;;4999429;28;20042;-82
2023/06/06 10:28:26;;;;;;;12.48;5.70;;;17.20;99.90;;;;;;4988891;28;20041;-82
2023/06/06 10:31:03;;;;;;;8.60;5.25;;;16.50;99.90;;;;;;4997419;28;20053;-81
2023/06/06 10:33:33;;;;;;;9.02;5.63;;;16.90;99.90;;;;;;5005714;28;20129;-81
2023/06/06 10:36:08;;;;;;;12.90;5.47;;;16.60;99.90;;;;;;5011692;28;20124;-81
2023/06/06 10:38:35;;;;;;;14.80;6.70;;;16.70;99.90;;;;;;4992506;28;20072;-81
2023/06/06 10:41:01;;;;;;;13.68;6.45;;;16.80;99.90;;;;;;5011147;28;20049;-81
2023/06/06 10:43:47;;;;;;;10.63;5.13;;;17.20;99.90;;;;;;4992623;28;20045;-81
2023/06/06 10:46:12;;;;;;;15.45;6.30;;;16.90;99.90;;;;;;4979503;28;20148;-81
2023/06/06 10:48:43;;;;;;;14.10;5.45;;;16.90;99.90;;;;;;5009486;28;20156;-81
2023/06/06 10:51:23;;;;;;;11.20;5.75;;;16.90;99.90;;;;;;4994072;28;20447;-81
2023/06/06 10:54:18;;;;;;;9.43;4.60;;;16.90;99.90;;;;;;5010454;28;20069;-81
2023/06/06 10:56:51;;;;;;;7.78;4.90;;;17.00;99.90;;;;;;5007078;28;20112;-82
2023/06/06 10:59:16;;;;;;;11.35;5.15;;;17.20;99.90;;;;;;4993283;28;20100;-82
2023/06/06 11:01:46;;;;;;;12.55;5.78;;;17.20;99.90;;;;;;5009584;28;20046;-82
2023/06/06 11:04:20;;;;;;;10.80;5.97;;;17.30;99.90;;;;;;4976589;28;20045;-82
2023/06/06 11:06:51;;;;;;;18.40;6.82;;;17.40;99.90;;;;;;4985233;28;20057;-82
2023/06/06 11:09:21;;;;;;;13.23;5.93;;;17.50;99.90;;;;;;4971084;28;20173;-82
2023/06/06 11:11:48;;;;;;;10.57;6.03;;;17.50;99.90;;;;;;4975235;28;20498;-83
2023/06/06 11:14:18;;;;;;;10.38;5.65;;;17.70;99.90;;;;;;4957961;28;20050;-82
2023/06/06 11:16:43;;;;;;;8.43;4.95;;;17.80;99.90;;;;;;4990245;28;20157;-84
2023/06/06 11:19:19;;;;;;;13.65;5.03;;;19.10;99.90;;;;;;4991397;28;20054;-82
2023/06/06 11:21:50;;;;;;;12.68;5.60;;;18.00;99.90;;;;;;4973134;28;20067;-81
2023/06/06 11:24:18;;;;;;;11.45;4.55;;;18.10;99.90;;;;;;4991279;28;20034;-82
2023/06/06 11:26:44;;;;;;;14.20;5.38;;;18.20;99.90;;;;;;4990380;28;20042;-82
2023/06/06 11:29:11;;;;;;;10.38;4.32;;;18.20;99.90;;;;;;4989672;28;20161;-82
2023/06/06 11:31:40;;;;;;;9.68;4.25;;;18.30;99.90;;;;;;4990542;28;20150;-82
2023/06/06 11:34:13;;;;;;;7.95;4.75;;;18.40;99.90;;;;;;4994863;28;20225;-82
2023/06/06 11:36:41;;;;;;;11.68;4.53;;;18.40;99.90;;;;;;4989696;28;20054;-82
2023/06/06 11:39:11;;;;;;;10.80;4.30;;;19.00;99.90;;;;;;4990847;28;20046;-82
2023/06/06 11:41:40;;;;;;;16.33;5.28;;;18.50;99.90;;;;;;4991068;28;20038;-81
2023/06/06 11:44:06;;;;;;;8.18;4.03;;;18.60;99.90;;;;;;4990476;28;20077;-82
2023/06/06 11:46:52;;;;;;;9.38;4.50;;;18.70;99.90;;;;;;4992639;28;20042;-82
2023/06/06 11:49:19;;;;;;;10.32;5.07;;;18.80;99.90;;;;;;4991544;28;20407;-81
2023/06/06 11:51:59;;;;;;;8.63;4.47;;;18.90;99.90;;;;;;5020982;23;20046;-82
2023/06/06 11:54:27;;;;;;;10.88;4.50;;;19.10;99.90;;;;;;5008725;28;20038;-81
2023/06/06 11:56:58;;;;;;;11.68;4.85;;;19.20;99.90;;;;;;5012050;28;20405;-82
2023/06/06 11:59:24;;;;;;;16.73;4.50;;;19.20;99.90;;;;;;5012943;28;20486;-82
2023/06/06 12:01:53;;;;;;;10.82;4.43;;;19.30;99.90;;;;;;5012776;28;20125;-82
2023/06/06 12:04:23;;;;;;;9.15;4.93;;;19.40;99.90;;;;;;5011871;28;20084;-82
2023/06/06 12:06:50;;;;;;;11.18;4.40;;;19.50;99.90;;;;;;4995286;28;20490;-82
2023/06/06 12:09:17;;;;;;;12.40;4.50;;;19.50;99.90;;;;;;5013292;28;20382;-82
2023/06/06 12:11:54;;;;;;;10.02;4.72;;;19.60;99.90;;;;;;5018493;28;20078;-82
2023/06/06 12:14:25;;;;;;;11.15;4.60;;;19.70;99.90;;;;;;5022006;28;20046;-82
2023/06/06 12:16:51;;;;;;;9.65;4.32;;;19.70;99.90;;;;;;5014992;28;20042;-82
2023/06/06 12:19:18;;;;;;;11.02;4.85;;;19.80;99.90;;;;;;5012834;28;20283;-82
2023/06/06 12:21:51;;;;;;;9.98;5.38;;;19.90;99.90;;;;;;4995510;28;20066;-82
2023/06/06 12:24:22;;;;;;;14.13;4.90;;;20.00;99.90;;;;;;5013641;28;20030;-83
2023/06/06 12:27:02;;;;;;;12.05;4.90;;;20.10;99.90;;;;;;5012940;28;20088;-81
2023/06/06 12:29:33;;;;;;;9.90;6.07;;;20.00;99.90;;;;;;4979809;28;20042;-81
2023/06/06 12:32:21;;;;;;;12.18;5.55;;;20.20;99.90;;;;;;4995088;28;20034;-81
2023/06/06 12:34:59;;;;;;;10.55;5.35;;;20.20;99.90;;;;;;4980839;28;20073;-81
2023/06/06 12:37:41;;;;;;;13.38;5.32;;;20.30;99.90;;;;;;4999860;28;20038;-81
2023/06/06 12:40:23;;;;;;;8.45;3.75;;;20.30;99.90;;;;;;5020098;28;20129;-82
2023/06/06 12:43:00;;;;;;;10.00;4.25;;;20.40;99.90;;;;;;4990901;28;20034;-82
2023/06/06 12:45:32;;;;;;;10.38;3.78;;;20.50;99.90;;;;;;4996639;28;20049;-83
2023/06/06 12:48:00;;;;;;;13.02;4.07;;;20.60;99.90;;;;;;5012760;28;20107;-83
2023/06/06 12:50:26;;;;;;;12.45;3.58;;;20.60;99.90;;;;;;5012211;28;20045;-83